createdAt,value
2017-12-02T00:00:07.252Z,1011.92
2017-12-02T00:01:07.243Z,1011.92
2017-12-02T00:02:07.235Z,1011.94
2017-12-02T00:03:07.225Z,1011.91
2017-12-02T00:04:07.216Z,1011.87
2017-12-02T00:05:07.206Z,1011.94
2017-12-02T00:06:07.197Z,1011.93
2017-12-02T00:07:07.189Z,1011.89
2017-12-02T00:08:07.179Z,1011.88
2017-12-02T00:09:07.169Z,1011.92
2017-12-02T00:10:07.161Z,1011.91
2017-12-02T00:11:07.151Z,1011.87
2017-12-02T00:12:07.184Z,1011.93
2017-12-02T00:13:07.132Z,1011.90
2017-12-02T00:14:07.124Z,1011.96
2017-12-02T00:15:07.116Z,1011.99
2017-12-02T00:16:07.105Z,1011.93
2017-12-02T00:17:07.097Z,1011.97
2017-12-02T00:18:07.088Z,1011.96
2017-12-02T00:19:07.079Z,1011.97
2017-12-02T00:20:07.068Z,1012.00
2017-12-02T00:21:07.059Z,1012.02
2017-12-02T00:22:07.049Z,1012.02
2017-12-02T00:23:07.040Z,1012.02
2017-12-02T00:24:07.030Z,1012.05
2017-12-02T00:25:07.021Z,1012.08
2017-12-02T00:26:07.013Z,1012.05
2017-12-02T00:27:07.005Z,1012.07
2017-12-02T00:28:06.994Z,1012.11
2017-12-02T00:29:06.986Z,1012.15
2017-12-02T00:30:06.976Z,1012.10
2017-12-02T00:31:06.966Z,1012.15
2017-12-02T00:32:06.957Z,1012.13
2017-12-02T00:33:06.947Z,1012.16
2017-12-02T00:34:06.938Z,1012.16
2017-12-02T00:35:06.938Z,1012.21
2017-12-02T00:36:06.921Z,1012.25
2017-12-02T00:37:06.911Z,1012.23
2017-12-02T00:38:06.903Z,1012.26
2017-12-02T00:39:06.892Z,1012.30
2017-12-02T00:40:06.883Z,1012.38
2017-12-02T00:41:06.875Z,1012.40
2017-12-02T00:42:06.866Z,1012.45
2017-12-02T00:43:06.856Z,1012.41
2017-12-02T00:44:06.849Z,1012.41
2017-12-02T00:45:06.836Z,1012.44
2017-12-02T00:46:06.827Z,1012.45
2017-12-02T00:47:06.818Z,1012.44
2017-12-02T00:48:06.809Z,1012.46
2017-12-02T00:49:06.800Z,1012.49
2017-12-02T00:50:06.790Z,1012.50
2017-12-02T00:51:06.783Z,1012.51
2017-12-02T00:52:06.773Z,1012.52
2017-12-02T00:53:06.763Z,1012.48
2017-12-02T00:54:06.759Z,1012.51
2017-12-02T00:55:06.744Z,1012.54
2017-12-02T00:56:06.736Z,1012.50
2017-12-02T00:57:06.726Z,1012.56
2017-12-02T00:58:06.718Z,1012.52
2017-12-02T00:59:06.706Z,1012.52
2017-12-02T01:00:06.697Z,1012.51
2017-12-02T01:01:06.688Z,1012.49
2017-12-02T01:02:06.678Z,1012.53
2017-12-02T01:03:06.670Z,1012.53
2017-12-02T01:04:06.660Z,1012.52
2017-12-02T01:05:06.651Z,1012.49
2017-12-02T01:06:06.641Z,1012.53
2017-12-02T01:07:06.631Z,1012.58
2017-12-02T01:08:06.622Z,1012.56
2017-12-02T01:09:06.615Z,1012.58
2017-12-02T01:10:06.605Z,1012.60
2017-12-02T01:11:06.596Z,1012.60
2017-12-02T01:12:06.591Z,1012.64
2017-12-02T01:13:06.576Z,1012.64
2017-12-02T01:14:06.567Z,1012.67
2017-12-02T01:15:06.558Z,1012.66
2017-12-02T01:16:06.548Z,1012.68
2017-12-02T01:17:06.540Z,1012.67
2017-12-02T01:18:06.584Z,1012.69
2017-12-02T01:19:06.521Z,1012.67
2017-12-02T01:20:06.510Z,1012.65
2017-12-02T01:21:06.501Z,1012.68
2017-12-02T01:22:06.493Z,1012.70
2017-12-02T01:23:06.483Z,1012.72
2017-12-02T01:24:06.474Z,1012.73
2017-12-02T01:25:06.465Z,1012.72
2017-12-02T01:26:06.454Z,1012.71
2017-12-02T01:27:06.445Z,1012.74
2017-12-02T01:28:06.436Z,1012.75
2017-12-02T01:29:06.426Z,1012.76
2017-12-02T01:30:06.418Z,1012.70
2017-12-02T01:31:06.408Z,1012.74
2017-12-02T01:32:06.397Z,1012.78
2017-12-02T01:33:06.389Z,1012.79
2017-12-02T01:34:06.380Z,1012.76
2017-12-02T01:35:06.370Z,1012.82
2017-12-02T01:36:06.362Z,1012.85
2017-12-02T01:37:06.352Z,1012.84
2017-12-02T01:38:06.343Z,1012.90
2017-12-02T01:39:06.332Z,1012.86
2017-12-02T01:40:06.323Z,1012.85
2017-12-02T01:41:06.314Z,1012.90
2017-12-02T01:42:06.306Z,1012.95
2017-12-02T01:43:06.296Z,1012.92
2017-12-02T01:44:06.286Z,1012.97
2017-12-02T01:45:06.277Z,1012.98
2017-12-02T01:46:06.268Z,1012.97
2017-12-02T01:47:06.259Z,1012.98
2017-12-02T01:48:06.249Z,1012.96
2017-12-02T01:49:06.241Z,1012.97
2017-12-02T01:50:06.230Z,1012.99
2017-12-02T01:51:06.221Z,1012.98
2017-12-02T01:52:06.211Z,1013.02
2017-12-02T01:53:06.201Z,1013.02
2017-12-02T01:54:06.192Z,1013.03
2017-12-02T01:55:06.185Z,1013.06
2017-12-02T01:56:06.174Z,1013.10
2017-12-02T01:57:06.166Z,1013.11
2017-12-02T01:58:06.157Z,1013.11
2017-12-02T01:59:06.146Z,1013.11
2017-12-02T02:00:06.136Z,1013.11
2017-12-02T02:01:06.129Z,1013.11
2017-12-02T02:02:06.119Z,1013.13
2017-12-02T02:03:06.111Z,1013.13
2017-12-02T02:04:06.106Z,1013.20
2017-12-02T02:05:06.091Z,1013.19
2017-12-02T02:06:06.081Z,1013.20
2017-12-02T02:07:06.073Z,1013.16
2017-12-02T02:08:06.063Z,1013.20
2017-12-02T02:09:06.055Z,1013.15
2017-12-02T02:10:06.042Z,1013.15
2017-12-02T02:11:06.035Z,1013.14
2017-12-02T02:12:06.025Z,1013.17
2017-12-02T02:13:06.016Z,1013.19
2017-12-02T02:14:06.009Z,1013.20
2017-12-02T02:15:06.001Z,1013.21
2017-12-02T02:16:05.989Z,1013.21
2017-12-02T02:17:05.980Z,1013.29
2017-12-02T02:18:05.972Z,1013.26
2017-12-02T02:19:05.961Z,1013.29
2017-12-02T02:20:05.953Z,1013.35
2017-12-02T02:21:05.944Z,1013.31
2017-12-02T02:22:05.935Z,1013.33
2017-12-02T02:23:05.926Z,1013.36
2017-12-02T02:24:05.953Z,1013.39
2017-12-02T02:25:05.908Z,1013.37
2017-12-02T02:26:05.896Z,1013.34
2017-12-02T02:27:05.889Z,1013.34
2017-12-02T02:28:05.883Z,1013.36
2017-12-02T02:29:05.870Z,1013.37
2017-12-02T02:30:05.865Z,1013.42
2017-12-02T02:31:05.854Z,1013.42
2017-12-02T02:32:05.843Z,1013.39
2017-12-02T02:33:05.833Z,1013.43
2017-12-02T02:34:05.824Z,1013.39
2017-12-02T02:35:05.818Z,1013.36
2017-12-02T02:36:05.807Z,1013.42
2017-12-02T02:37:05.799Z,1013.40
2017-12-02T02:38:05.790Z,1013.42
2017-12-02T02:39:05.780Z,1013.44
2017-12-02T02:40:05.769Z,1013.44
2017-12-02T02:41:05.761Z,1013.45
2017-12-02T02:42:05.756Z,1013.45
2017-12-02T02:43:05.744Z,1013.47
2017-12-02T02:44:05.734Z,1013.49
2017-12-02T02:45:05.725Z,1013.46
2017-12-02T02:46:05.715Z,1013.44
2017-12-02T02:47:05.711Z,1013.44
2017-12-02T02:48:05.695Z,1013.48
2017-12-02T02:49:05.689Z,1013.48
2017-12-02T02:50:05.679Z,1013.53
2017-12-02T02:51:05.671Z,1013.54
2017-12-02T02:52:05.660Z,1013.53
2017-12-02T02:53:05.651Z,1013.51
2017-12-02T02:54:05.643Z,1013.46
2017-12-02T02:55:05.637Z,1013.51
2017-12-02T02:56:05.623Z,1013.50
2017-12-02T02:57:05.616Z,1013.54
2017-12-02T02:58:05.610Z,1013.50
2017-12-02T02:59:05.597Z,1013.53
2017-12-02T03:00:05.587Z,1013.51
2017-12-02T03:01:05.579Z,1013.53
2017-12-02T03:02:05.568Z,1013.49
2017-12-02T03:03:05.560Z,1013.50
2017-12-02T03:04:05.552Z,1013.50
2017-12-02T03:05:05.542Z,1013.53
2017-12-02T03:06:05.532Z,1013.56
2017-12-02T03:07:05.522Z,1013.53
2017-12-02T03:08:05.513Z,1013.56
2017-12-02T03:09:05.503Z,1013.56
2017-12-02T03:10:05.495Z,1013.58
2017-12-02T03:11:05.485Z,1013.64
2017-12-02T03:12:05.476Z,1013.65
2017-12-02T03:13:05.466Z,1013.63
2017-12-02T03:14:05.459Z,1013.64
2017-12-02T03:15:05.448Z,1013.63
2017-12-02T03:16:05.438Z,1013.59
2017-12-02T03:17:05.430Z,1013.56
2017-12-02T03:18:05.421Z,1013.62
2017-12-02T03:19:05.411Z,1013.64
2017-12-02T03:20:05.401Z,1013.63
2017-12-02T03:21:05.393Z,1013.64
2017-12-02T03:22:05.384Z,1013.66
2017-12-02T03:23:05.376Z,1013.66
2017-12-02T03:24:05.365Z,1013.69
2017-12-02T03:25:05.356Z,1013.70
2017-12-02T03:26:05.346Z,1013.67
2017-12-02T03:27:05.337Z,1013.68
2017-12-02T03:28:05.328Z,1013.66
2017-12-02T03:29:05.319Z,1013.66
2017-12-02T03:30:05.310Z,1013.67
2017-12-02T03:31:05.306Z,1013.68
2017-12-02T03:32:05.297Z,1013.65
2017-12-02T03:33:05.283Z,1013.67
2017-12-02T03:34:05.272Z,1013.68
2017-12-02T03:35:05.264Z,1013.68
2017-12-02T03:36:05.254Z,1013.68
2017-12-02T03:37:05.253Z,1013.65
2017-12-02T03:38:05.236Z,1013.67
2017-12-02T03:39:05.227Z,1013.69
2017-12-02T03:40:05.218Z,1013.71
2017-12-02T03:41:05.207Z,1013.72
2017-12-02T03:42:05.199Z,1013.73
2017-12-02T03:43:05.189Z,1013.72
2017-12-02T03:44:05.180Z,1013.74
2017-12-02T03:45:05.172Z,1013.76
2017-12-02T03:46:05.162Z,1013.76
2017-12-02T03:47:05.153Z,1013.75
2017-12-02T03:48:05.151Z,1013.78
2017-12-02T03:49:05.135Z,1013.78
2017-12-02T03:50:05.125Z,1013.79
2017-12-02T03:51:05.116Z,1013.81
2017-12-02T03:52:05.107Z,1013.85
2017-12-02T03:53:05.098Z,1013.85
2017-12-02T03:54:05.088Z,1013.85
2017-12-02T03:55:05.085Z,1013.86
2017-12-02T03:56:05.069Z,1013.86
2017-12-02T03:57:05.060Z,1013.89
2017-12-02T03:58:05.052Z,1013.92
2017-12-02T03:59:05.042Z,1013.99
2017-12-02T04:00:05.031Z,1013.93
2017-12-02T04:01:05.023Z,1013.95
2017-12-02T04:02:05.014Z,1013.97
2017-12-02T04:03:05.005Z,1013.96
2017-12-02T04:04:04.995Z,1013.97
2017-12-02T04:05:04.987Z,1014.03
2017-12-02T04:06:04.978Z,1013.96
2017-12-02T04:07:04.967Z,1013.98
2017-12-02T04:08:04.957Z,1014.00
2017-12-02T04:09:04.948Z,1013.94
2017-12-02T04:10:04.941Z,1013.96
2017-12-02T04:11:04.930Z,1013.97
2017-12-02T04:12:04.922Z,1014.01
2017-12-02T04:13:04.912Z,1014.02
2017-12-02T04:14:04.902Z,1013.98
2017-12-02T04:15:04.900Z,1014.06
2017-12-02T04:16:04.882Z,1014.02
2017-12-02T04:17:04.876Z,1014.06
2017-12-02T04:18:04.864Z,1014.04
2017-12-02T04:19:04.855Z,1014.07
2017-12-02T04:20:04.852Z,1014.04
2017-12-02T04:21:04.835Z,1014.05
2017-12-02T04:22:04.828Z,1014.01
2017-12-02T04:23:04.818Z,1014.02
2017-12-02T04:24:04.808Z,1014.01
2017-12-02T04:25:04.803Z,1013.99
2017-12-02T04:26:04.792Z,1013.98
2017-12-02T04:27:04.783Z,1014.01
2017-12-02T04:28:04.770Z,1013.99
2017-12-02T04:29:04.764Z,1014.01
2017-12-02T04:30:04.752Z,1014.05
2017-12-02T04:31:04.745Z,1014.01
2017-12-02T04:32:04.733Z,1014.00
2017-12-02T04:33:04.724Z,1014.00
2017-12-02T04:34:04.716Z,1013.98
2017-12-02T04:35:04.707Z,1014.01
2017-12-02T04:36:04.697Z,1013.96
2017-12-02T04:37:04.688Z,1013.99
2017-12-02T04:38:04.678Z,1014.00
2017-12-02T04:39:04.669Z,1014.01
2017-12-02T04:40:04.657Z,1014.00
2017-12-02T04:41:04.649Z,1013.99
2017-12-02T04:42:04.640Z,1014.01
2017-12-02T04:43:04.630Z,1014.02
2017-12-02T04:44:04.622Z,1014.02
2017-12-02T04:45:04.611Z,1014.01
2017-12-02T04:46:04.602Z,1014.04
2017-12-02T04:47:04.593Z,1014.02
2017-12-02T04:48:04.584Z,1014.02
2017-12-02T04:49:04.574Z,1014.04
2017-12-02T04:50:04.566Z,1014.01
2017-12-02T04:51:04.555Z,1013.99
2017-12-02T04:52:04.547Z,1013.97
2017-12-02T04:53:04.537Z,1013.96
2017-12-02T04:54:04.527Z,1013.97
2017-12-02T04:55:04.518Z,1014.00
2017-12-02T04:56:04.507Z,1013.94
2017-12-02T04:57:04.498Z,1013.94
2017-12-02T04:58:04.490Z,1013.95
2017-12-02T04:59:04.478Z,1013.91
2017-12-02T05:00:04.470Z,1013.92
2017-12-02T05:01:04.458Z,1013.88
2017-12-02T05:02:04.453Z,1013.94
2017-12-02T05:03:04.440Z,1013.94
2017-12-02T05:04:04.429Z,1013.96
2017-12-02T05:05:04.421Z,1013.94
2017-12-02T05:06:04.411Z,1013.93
2017-12-02T05:07:04.403Z,1013.91
2017-12-02T05:08:04.393Z,1013.93
2017-12-02T05:09:04.382Z,1013.91
2017-12-02T05:10:04.374Z,1013.89
2017-12-02T05:11:04.364Z,1013.92
2017-12-02T05:12:04.355Z,1013.91
2017-12-02T05:13:04.346Z,1013.95
2017-12-02T05:14:04.336Z,1013.96
2017-12-02T05:15:04.325Z,1013.96
2017-12-02T05:16:04.316Z,1013.99
2017-12-02T05:17:04.306Z,1013.99
2017-12-02T05:18:04.299Z,1014.02
2017-12-02T05:19:04.288Z,1013.99
2017-12-02T05:20:04.278Z,1013.99
2017-12-02T05:21:04.269Z,1014.03
2017-12-02T05:22:04.260Z,1013.98
2017-12-02T05:23:04.255Z,1014.03
2017-12-02T05:24:04.243Z,1014.01
2017-12-02T05:25:04.233Z,1014.02
2017-12-02T05:26:04.221Z,1014.06
2017-12-02T05:27:04.216Z,1014.01
2017-12-02T05:28:04.203Z,1014.08
2017-12-02T05:29:04.193Z,1014.08
2017-12-02T05:30:04.184Z,1014.09
2017-12-02T05:31:04.176Z,1014.12
2017-12-02T05:32:04.166Z,1014.13
2017-12-02T05:33:04.157Z,1014.20
2017-12-02T05:34:04.147Z,1014.17
2017-12-02T05:35:04.137Z,1014.19
2017-12-02T05:36:04.129Z,1014.14
2017-12-02T05:37:04.119Z,1014.19
2017-12-02T05:38:04.118Z,1014.19
2017-12-02T05:39:04.100Z,1014.14
2017-12-02T05:40:04.091Z,1014.19
2017-12-02T05:41:04.080Z,1014.15
2017-12-02T05:42:04.078Z,1014.19
2017-12-02T05:43:04.061Z,1014.18
2017-12-02T05:44:04.051Z,1014.23
2017-12-02T05:45:04.044Z,1014.21
2017-12-02T05:46:04.035Z,1014.30
2017-12-02T05:47:04.024Z,1014.34
2017-12-02T05:48:04.016Z,1014.33
2017-12-02T05:49:04.005Z,1014.28
2017-12-02T05:50:03.996Z,1014.37
2017-12-02T05:51:03.987Z,1014.41
2017-12-02T05:52:03.976Z,1014.38
2017-12-02T05:53:03.966Z,1014.40
2017-12-02T05:54:03.959Z,1014.41
2017-12-02T05:55:03.952Z,1014.45
2017-12-02T05:56:03.938Z,1014.46
2017-12-02T05:57:03.930Z,1014.45
2017-12-02T05:58:03.920Z,1014.49
2017-12-02T05:59:03.911Z,1014.50
2017-12-02T06:00:03.901Z,1014.59
2017-12-02T06:01:03.890Z,1014.52
2017-12-02T06:02:03.884Z,1014.58
2017-12-02T06:03:03.873Z,1014.62
2017-12-02T06:04:03.862Z,1014.62
2017-12-02T06:05:03.853Z,1014.64
2017-12-02T06:06:03.846Z,1014.63
2017-12-02T06:07:03.834Z,1014.63
2017-12-02T06:08:03.825Z,1014.64
2017-12-02T06:09:03.818Z,1014.68
2017-12-02T06:10:03.808Z,1014.69
2017-12-02T06:11:03.799Z,1014.74
2017-12-02T06:12:03.787Z,1014.72
2017-12-02T06:13:03.778Z,1014.78
2017-12-02T06:14:03.769Z,1014.79
2017-12-02T06:15:03.760Z,1014.78
2017-12-02T06:16:03.750Z,1014.78
2017-12-02T06:17:03.740Z,1014.81
2017-12-02T06:18:03.779Z,1014.82
2017-12-02T06:19:03.722Z,1014.87
2017-12-02T06:20:03.711Z,1014.89
2017-12-02T06:21:03.703Z,1014.90
2017-12-02T06:22:03.694Z,1014.95
2017-12-02T06:23:03.685Z,1014.95
2017-12-02T06:24:03.674Z,1014.97
2017-12-02T06:25:03.664Z,1014.93
2017-12-02T06:26:03.655Z,1014.95
2017-12-02T06:27:03.647Z,1014.97
2017-12-02T06:28:03.636Z,1014.95
2017-12-02T06:29:03.628Z,1014.95
2017-12-02T06:30:03.618Z,1014.95
2017-12-02T06:31:03.609Z,1014.99
2017-12-02T06:32:03.598Z,1014.94
2017-12-02T06:33:03.589Z,1014.93
2017-12-02T06:34:03.579Z,1015.02
2017-12-02T06:35:03.574Z,1014.96
2017-12-02T06:36:03.561Z,1014.99
2017-12-02T06:37:03.550Z,1014.98
2017-12-02T06:38:03.540Z,1015.02
2017-12-02T06:39:03.533Z,1015.01
2017-12-02T06:40:03.530Z,1015.02
2017-12-02T06:41:03.513Z,1015.03
2017-12-02T06:42:03.504Z,1015.05
2017-12-02T06:43:03.495Z,1015.06
2017-12-02T06:44:03.486Z,1015.09
2017-12-02T06:45:03.475Z,1015.10
2017-12-02T06:46:03.465Z,1015.04
2017-12-02T06:47:03.457Z,1015.08
2017-12-02T06:48:03.447Z,1015.08
2017-12-02T06:49:03.437Z,1015.13
2017-12-02T06:50:03.428Z,1015.12
2017-12-02T06:51:03.418Z,1015.13
2017-12-02T06:52:03.408Z,1015.15
2017-12-02T06:53:03.400Z,1015.20
2017-12-02T06:54:03.390Z,1015.21
2017-12-02T06:55:03.381Z,1015.20
2017-12-02T06:56:03.401Z,1015.16
2017-12-02T06:57:03.362Z,1015.18
2017-12-02T06:58:03.352Z,1015.16
2017-12-02T06:59:03.349Z,1015.19
2017-12-02T07:00:03.331Z,1015.18
2017-12-02T07:01:03.326Z,1015.21
2017-12-02T07:02:03.313Z,1015.19
2017-12-02T07:03:03.303Z,1015.17
2017-12-02T07:04:03.292Z,1015.15
2017-12-02T07:05:03.285Z,1015.14
2017-12-02T07:06:03.275Z,1015.18
2017-12-02T07:07:03.263Z,1015.11
2017-12-02T07:08:03.254Z,1015.14
2017-12-02T07:09:03.245Z,1015.15
2017-12-02T07:10:03.238Z,1015.15
2017-12-02T07:11:03.226Z,1015.15
2017-12-02T07:12:03.216Z,1015.17
2017-12-02T07:13:03.211Z,1015.18
2017-12-02T07:14:03.195Z,1015.22
2017-12-02T07:15:03.188Z,1015.22
2017-12-02T07:16:03.178Z,1015.22
2017-12-02T07:17:03.167Z,1015.28
2017-12-02T07:18:03.158Z,1015.28
2017-12-02T07:19:03.149Z,1015.27
2017-12-02T07:20:03.138Z,1015.29
2017-12-02T07:21:03.129Z,1015.33
2017-12-02T07:22:03.120Z,1015.31
2017-12-02T07:23:03.111Z,1015.28
2017-12-02T07:24:03.101Z,1015.28
2017-12-02T07:25:03.089Z,1015.25
2017-12-02T07:26:03.081Z,1015.29
2017-12-02T07:27:03.072Z,1015.30
2017-12-02T07:28:03.066Z,1015.25
2017-12-02T07:29:03.053Z,1015.23
2017-12-02T07:30:03.043Z,1015.25
2017-12-02T07:31:03.033Z,1015.22
2017-12-02T07:32:03.029Z,1015.24
2017-12-02T07:33:03.013Z,1015.25
2017-12-02T07:34:03.005Z,1015.24
2017-12-02T07:35:02.997Z,1015.27
2017-12-02T07:36:02.984Z,1015.28
2017-12-02T07:37:02.974Z,1015.24
2017-12-02T07:38:02.965Z,1015.21
2017-12-02T07:39:02.957Z,1015.18
2017-12-02T07:40:02.945Z,1015.18
2017-12-02T07:41:02.938Z,1015.18
2017-12-02T07:42:02.926Z,1015.13
2017-12-02T07:43:02.917Z,1015.13
2017-12-02T07:44:02.907Z,1015.16
2017-12-02T07:45:02.897Z,1015.20
2017-12-02T07:46:02.888Z,1015.22
2017-12-02T07:47:02.879Z,1015.21
2017-12-02T07:48:02.868Z,1015.28
2017-12-02T07:49:02.859Z,1015.27
2017-12-02T07:50:02.849Z,1015.25
2017-12-02T07:51:02.842Z,1015.27
2017-12-02T07:52:02.830Z,1015.28
2017-12-02T07:53:02.821Z,1015.30
2017-12-02T07:54:02.812Z,1015.26
2017-12-02T07:55:02.802Z,1015.24
2017-12-02T07:56:02.791Z,1015.23
2017-12-02T07:57:02.782Z,1015.23
2017-12-02T07:58:02.773Z,1015.24
2017-12-02T07:59:02.764Z,1015.25
2017-12-02T08:00:02.753Z,1015.30
2017-12-02T08:01:02.744Z,1015.30
2017-12-02T08:02:02.736Z,1015.34
2017-12-02T08:03:02.726Z,1015.36
2017-12-02T08:04:02.716Z,1015.33
2017-12-02T08:05:02.706Z,1015.34
2017-12-02T08:06:02.727Z,1015.34
2017-12-02T08:07:02.688Z,1015.36
2017-12-02T08:08:02.677Z,1015.36
2017-12-02T08:09:02.668Z,1015.37
2017-12-02T08:10:02.659Z,1015.37
2017-12-02T08:11:02.648Z,1015.35
2017-12-02T08:12:02.638Z,1015.39
2017-12-02T08:13:02.629Z,1015.38
2017-12-02T08:14:02.621Z,1015.40
2017-12-02T08:15:02.611Z,1015.37
2017-12-02T08:16:02.601Z,1015.36
2017-12-02T08:17:02.591Z,1015.43
2017-12-02T08:18:02.582Z,1015.43
2017-12-02T08:19:02.572Z,1015.47
2017-12-02T08:20:02.562Z,1015.46
2017-12-02T08:21:02.553Z,1015.48
2017-12-02T08:22:02.543Z,1015.43
2017-12-02T08:23:02.536Z,1015.50
2017-12-02T08:24:02.523Z,1015.47
2017-12-02T08:25:02.515Z,1015.46
2017-12-02T08:26:02.506Z,1015.51
2017-12-02T08:27:02.496Z,1015.49
2017-12-02T08:28:02.485Z,1015.49
2017-12-02T08:29:02.476Z,1015.46
2017-12-02T08:30:02.466Z,1015.45
2017-12-02T08:31:02.457Z,1015.47
2017-12-02T08:32:02.447Z,1015.45
2017-12-02T08:33:02.438Z,1015.45
2017-12-02T08:34:02.428Z,1015.48
2017-12-02T08:35:02.422Z,1015.47
2017-12-02T08:36:02.412Z,1015.49
2017-12-02T08:37:02.399Z,1015.48
2017-12-02T08:38:02.393Z,1015.46
2017-12-02T08:39:02.380Z,1015.46
2017-12-02T08:40:02.371Z,1015.50
2017-12-02T08:41:02.363Z,1015.51
2017-12-02T08:42:02.351Z,1015.54
2017-12-02T08:43:02.343Z,1015.56
2017-12-02T08:44:02.341Z,1015.62
2017-12-02T08:45:02.324Z,1015.66
2017-12-02T08:46:02.316Z,1015.69
2017-12-02T08:47:02.306Z,1015.68
2017-12-02T08:48:02.295Z,1015.70
2017-12-02T08:49:02.287Z,1015.69
2017-12-02T08:50:02.321Z,1015.74
2017-12-02T08:51:02.268Z,1015.74
2017-12-02T08:52:02.257Z,1015.77
2017-12-02T08:53:02.249Z,1015.75
2017-12-02T08:54:02.239Z,1015.78
2017-12-02T08:55:02.232Z,1015.76
2017-12-02T08:56:02.220Z,1015.77
2017-12-02T08:57:02.211Z,1015.83
2017-12-02T08:58:02.202Z,1015.83
2017-12-02T08:59:02.192Z,1015.81
2017-12-02T09:00:02.181Z,1015.81
2017-12-02T09:01:02.173Z,1015.80
2017-12-02T09:02:02.163Z,1015.80
2017-12-02T09:03:02.154Z,1015.77
2017-12-02T09:04:02.145Z,1015.78
2017-12-02T09:05:02.139Z,1015.76
2017-12-02T09:06:02.127Z,1015.77
2017-12-02T09:07:02.115Z,1015.78
2017-12-02T09:08:02.107Z,1015.77
2017-12-02T09:09:02.099Z,1015.73
2017-12-02T09:10:02.089Z,1015.80
2017-12-02T09:11:02.087Z,1015.80
2017-12-02T09:12:02.069Z,1015.81
2017-12-02T09:13:02.061Z,1015.81
2017-12-02T09:14:02.050Z,1015.89
2017-12-02T09:15:02.044Z,1015.86
2017-12-02T09:16:02.032Z,1015.86
2017-12-02T09:17:02.023Z,1015.87
2017-12-02T09:18:02.015Z,1015.91
2017-12-02T09:19:02.005Z,1015.95
2017-12-02T09:20:01.995Z,1016.01
2017-12-02T09:21:01.985Z,1015.99
2017-12-02T09:22:01.978Z,1016.02
2017-12-02T09:23:01.968Z,1016.03
2017-12-02T09:24:01.958Z,1016.07
2017-12-02T09:25:01.949Z,1016.13
2017-12-02T09:26:01.940Z,1016.12
2017-12-02T09:27:01.930Z,1016.15
2017-12-02T09:28:01.921Z,1016.17
2017-12-02T09:29:01.918Z,1016.20
2017-12-02T09:30:01.903Z,1016.20
2017-12-02T09:31:01.896Z,1016.21
2017-12-02T09:32:01.885Z,1016.22
2017-12-02T09:33:01.876Z,1016.20
2017-12-02T09:34:01.869Z,1016.28
2017-12-02T09:35:01.860Z,1016.28
2017-12-02T09:36:01.847Z,1016.29
2017-12-02T09:37:01.839Z,1016.26
2017-12-02T09:38:01.830Z,1016.23
2017-12-02T09:39:01.837Z,1016.26
2017-12-02T09:40:01.811Z,1016.23
2017-12-02T09:41:01.801Z,1016.19
2017-12-02T09:42:01.793Z,1016.21
2017-12-02T09:43:01.784Z,1016.19
2017-12-02T09:44:01.774Z,1016.18
2017-12-02T09:45:01.766Z,1016.20
2017-12-02T09:46:01.757Z,1016.17
2017-12-02T09:47:01.748Z,1016.21
2017-12-02T09:48:01.740Z,1016.24
2017-12-02T09:49:01.728Z,1016.26
2017-12-02T09:50:01.720Z,1016.31
2017-12-02T09:51:01.710Z,1016.32
2017-12-02T09:52:01.701Z,1016.36
2017-12-02T09:53:01.692Z,1016.34
2017-12-02T09:54:01.682Z,1016.33
2017-12-02T09:55:01.689Z,1016.35
2017-12-02T09:56:01.664Z,1016.38
2017-12-02T09:57:01.655Z,1016.39
2017-12-02T09:58:01.646Z,1016.37
2017-12-02T09:59:01.639Z,1016.36
2017-12-02T10:00:01.628Z,1016.39
2017-12-02T10:01:01.618Z,1016.37
2017-12-02T10:02:01.609Z,1016.36
2017-12-02T10:03:01.600Z,1016.34
2017-12-02T10:04:01.590Z,1016.32
2017-12-02T10:05:01.582Z,1016.37
2017-12-02T10:06:01.574Z,1016.36
2017-12-02T10:07:01.564Z,1016.39
2017-12-02T10:08:01.554Z,1016.41
2017-12-02T10:09:01.545Z,1016.37
2017-12-02T10:10:01.536Z,1016.39
2017-12-02T10:11:01.528Z,1016.38
2017-12-02T10:12:01.519Z,1016.36
2017-12-02T10:13:01.509Z,1016.40
2017-12-02T10:14:01.502Z,1016.38
2017-12-02T10:15:01.493Z,1016.39
2017-12-02T10:16:01.489Z,1016.39
2017-12-02T10:17:01.473Z,1016.46
2017-12-02T10:18:01.467Z,1016.45
2017-12-02T10:19:01.457Z,1016.44
2017-12-02T10:20:01.448Z,1016.40
2017-12-02T10:21:01.438Z,1016.47
2017-12-02T10:22:01.429Z,1016.42
2017-12-02T10:23:01.422Z,1016.45
2017-12-02T10:24:01.411Z,1016.38
2017-12-02T10:25:01.403Z,1016.37
2017-12-02T10:26:01.394Z,1016.40
2017-12-02T10:27:01.385Z,1016.40
2017-12-02T10:28:01.375Z,1016.44
2017-12-02T10:29:01.366Z,1016.38
2017-12-02T10:30:01.358Z,1016.43
2017-12-02T10:31:01.350Z,1016.38
2017-12-02T10:32:01.343Z,1016.36
2017-12-02T10:33:01.332Z,1016.33
2017-12-02T10:34:01.322Z,1016.36
2017-12-02T10:35:01.313Z,1016.33
2017-12-02T10:36:01.305Z,1016.36
2017-12-02T10:37:01.296Z,1016.34
2017-12-02T10:38:01.286Z,1016.32
2017-12-02T10:39:01.276Z,1016.29
2017-12-02T10:40:01.307Z,1016.29
2017-12-02T10:41:01.259Z,1016.27
2017-12-02T10:42:01.251Z,1016.25
2017-12-02T10:43:01.242Z,1016.20
2017-12-02T10:44:01.234Z,1016.18
2017-12-02T10:45:01.224Z,1016.19
2017-12-02T10:46:01.215Z,1016.18
2017-12-02T10:47:01.206Z,1016.19
2017-12-02T10:48:01.196Z,1016.18
2017-12-02T10:49:01.189Z,1016.10
2017-12-02T10:50:01.180Z,1016.10
2017-12-02T10:51:01.171Z,1016.12
2017-12-02T10:52:01.161Z,1016.15
2017-12-02T10:53:01.152Z,1016.13
2017-12-02T10:54:01.143Z,1016.16
2017-12-02T10:55:01.135Z,1016.10
2017-12-02T10:56:01.126Z,1016.15
2017-12-02T10:57:01.117Z,1016.14
2017-12-02T10:58:01.108Z,1016.15
2017-12-02T10:59:01.099Z,1016.19
2017-12-02T11:00:01.089Z,1016.12
2017-12-02T11:01:01.082Z,1016.14
2017-12-02T11:02:01.071Z,1016.18
2017-12-02T11:03:01.063Z,1016.15
2017-12-02T11:04:01.060Z,1016.11
2017-12-02T11:05:01.047Z,1016.14
2017-12-02T11:06:01.036Z,1016.12
2017-12-02T11:07:01.026Z,1016.14
2017-12-02T11:08:01.017Z,1016.10
2017-12-02T11:09:01.008Z,1016.15
2017-12-02T11:10:01.000Z,1016.19
2017-12-02T11:11:00.991Z,1016.17
2017-12-02T11:12:00.985Z,1016.15
2017-12-02T11:13:00.974Z,1016.14
2017-12-02T11:14:00.966Z,1016.12
2017-12-02T11:15:00.957Z,1016.13
2017-12-02T11:16:00.947Z,1016.07
2017-12-02T11:17:00.940Z,1016.10
2017-12-02T11:18:00.929Z,1016.12
2017-12-02T11:19:00.924Z,1016.11
2017-12-02T11:20:00.913Z,1016.15
2017-12-02T11:21:00.904Z,1016.13
2017-12-02T11:22:00.895Z,1016.14
2017-12-02T11:23:00.888Z,1016.08
2017-12-02T11:24:00.876Z,1016.12
2017-12-02T11:25:00.868Z,1016.07
2017-12-02T11:26:00.859Z,1016.05
2017-12-02T11:27:00.849Z,1016.01
2017-12-02T11:28:00.841Z,1016.01
2017-12-02T11:29:00.831Z,1016.01
2017-12-02T11:30:00.825Z,1016.02
2017-12-02T11:31:00.816Z,1016.02
2017-12-02T11:32:00.805Z,1016.01
2017-12-02T11:33:00.798Z,1016.03
2017-12-02T11:34:00.791Z,1015.98
2017-12-02T11:35:00.780Z,1015.99
2017-12-02T11:36:00.771Z,1016.00
2017-12-02T11:37:00.761Z,1016.00
2017-12-02T11:38:00.754Z,1015.97
2017-12-02T11:39:00.749Z,1015.98
2017-12-02T11:40:00.734Z,1015.99
2017-12-02T11:41:00.725Z,1015.99
2017-12-02T11:42:00.717Z,1016.04
2017-12-02T11:43:00.707Z,1016.00
2017-12-02T11:44:00.699Z,1016.00
2017-12-02T11:45:00.785Z,1015.97
2017-12-02T11:46:00.681Z,1015.96
2017-12-02T11:47:00.671Z,1016.02
2017-12-02T11:48:00.671Z,1015.98
2017-12-02T11:49:00.654Z,1015.91
2017-12-02T11:50:00.644Z,1015.95
2017-12-02T11:51:00.636Z,1015.95
2017-12-02T11:52:00.626Z,1015.95
2017-12-02T11:53:00.617Z,1016.00
2017-12-02T11:54:00.608Z,1015.94
2017-12-02T11:55:00.601Z,1015.96
2017-12-02T11:56:00.589Z,1015.98
2017-12-02T11:57:00.581Z,1015.95
2017-12-02T11:58:00.572Z,1015.92
2017-12-02T11:59:00.563Z,1015.88
2017-12-02T12:00:00.553Z,1015.88
2017-12-02T12:01:00.545Z,1015.85
2017-12-02T12:02:00.536Z,1015.83
2017-12-02T12:03:00.528Z,1015.80
2017-12-02T12:04:00.518Z,1015.84
2017-12-02T12:05:00.509Z,1015.83